sensor_id;sensor_type;location;lat;lon;timestamp;temperature;humidity
12682;DHT22;6405;59.208;18.216;2023-04-29T00:00:53;-1.60;99.90
12682;DHT22;6405;59.208;18.216;2023-04-29T00:03:18;-1.60;99.90
12682;DHT22;6405;59.208;18.216;2023-04-29T00:05:44;-1.60;99.90
12682;DHT22;6405;59.208;18.216;2023-04-29T00:08:10;-1.60;99.90
12682;DHT22;6405;59.208;18.216;2023-04-29T00:10:36;-1.60;99.90
12682;DHT22;6405;59.208;18.216;2023-04-29T00:13:02;-1.70;99.90
12682;DHT22;6405;59.208;18.216;2023-04-29T00:15:27;-1.70;99.90
12682;DHT22;6405;59.208;18.216;2023-04-29T00:17:53;-1.70;99.90
12682;DHT22;6405;59.208;18.216;2023-04-29T00:20:19;-1.70;99.90
12682;DHT22;6405;59.208;18.216;2023-04-29T00:22:45;-1.70;99.90
12682;DHT22;6405;59.208;18.216;2023-04-29T00:25:11;-1.70;99.90
12682;DHT22;6405;59.208;18.216;2023-04-29T00:27:37;-1.70;99.90
12682;DHT22;6405;59.208;18.216;2023-04-29T00:30:05;-1.70;99.90
12682;DHT22;6405;59.208;18.216;2023-04-29T00:32:32;-1.80;99.90
12682;DHT22;6405;59.208;18.216;2023-04-29T00:34:58;-1.80;99.90
12682;DHT22;6405;59.208;18.216;2023-04-29T00:37:23;-1.70;99.90
12682;DHT22;6405;59.208;18.216;2023-04-29T00:39:50;-1.70;99.90
12682;DHT22;6405;59.208;18.216;2023-04-29T00:42:16;-1.80;99.90
12682;DHT22;6405;59.208;18.216;2023-04-29T00:44:41;-1.80;99.90
12682;DHT22;6405;59.208;18.216;2023-04-29T00:47:07;-1.80;99.90
12682;DHT22;6405;59.208;18.216;2023-04-29T00:49:37;-1.80;99.90
12682;DHT22;6405;59.208;18.216;2023-04-29T00:52:03;-1.70;99.90
12682;DHT22;6405;59.208;18.216;2023-04-29T00:54:29;-1.70;99.90
12682;DHT22;6405;59.208;18.216;2023-04-29T00:56:55;-1.70;99.90
12682;DHT22;6405;59.208;18.216;2023-04-29T00:59:21;-1.70;99.90
12682;DHT22;6405;59.208;18.216;2023-04-29T01:01:47;-1.70;99.90
12682;DHT22;6405;59.208;18.216;2023-04-29T01:04:13;-1.70;99.90
12682;DHT22;6405;59.208;18.216;2023-04-29T01:06:48;-1.70;99.90
12682;DHT22;6405;59.208;18.216;2023-04-29T01:09:40;-1.70;99.90
12682;DHT22;6405;59.208;18.216;2023-04-29T01:12:20;-1.70;99.90
12682;DHT22;6405;59.208;18.216;2023-04-29T01:17:24;-1.70;99.90
12682;DHT22;6405;59.208;18.216;2023-04-29T01:19:54;-1.70;99.90
12682;DHT22;6405;59.208;18.216;2023-04-29T01:22:22;-1.70;99.90
12682;DHT22;6405;59.208;18.216;2023-04-29T01:24:48;-1.70;99.90
12682;DHT22;6405;59.208;18.216;2023-04-29T01:27:34;-1.70;99.90
12682;DHT22;6405;59.208;18.216;2023-04-29T01:35:38;-1.70;99.90
12682;DHT22;6405;59.208;18.216;2023-04-29T01:41:43;-1.80;99.90
12682;DHT22;6405;59.208;18.216;2023-04-29T01:44:19;-1.80;99.90
12682;DHT22;6405;59.208;18.216;2023-04-29T01:46:53;-1.80;99.90
12682;DHT22;6405;59.208;18.216;2023-04-29T01:49:26;-1.90;99.90
12682;DHT22;6405;59.208;18.216;2023-04-29T01:51:52;-1.90;99.90
12682;DHT22;6405;59.208;18.216;2023-04-29T01:54:18;-1.90;99.90
12682;DHT22;6405;59.208;18.216;2023-04-29T01:56:44;-1.90;99.90
12682;DHT22;6405;59.208;18.216;2023-04-29T01:59:10;-1.90;99.90
12682;DHT22;6405;59.208;18.216;2023-04-29T02:01:36;-1.90;99.90
12682;DHT22;6405;59.208;18.216;2023-04-29T02:04:02;-1.90;99.90
12682;DHT22;6405;59.208;18.216;2023-04-29T02:06:27;-1.90;99.90
12682;DHT22;6405;59.208;18.216;2023-04-29T02:08:53;-1.90;99.90
12682;DHT22;6405;59.208;18.216;2023-04-29T02:11:19;-1.90;99.90
12682;DHT22;6405;59.208;18.216;2023-04-29T02:13:45;-1.90;99.90
12682;DHT22;6405;59.208;18.216;2023-04-29T02:16:13;-1.90;99.90
12682;DHT22;6405;59.208;18.216;2023-04-29T02:18:39;-1.90;99.90
12682;DHT22;6405;59.208;18.216;2023-04-29T02:21:05;-1.90;99.90
12682;DHT22;6405;59.208;18.216;2023-04-29T02:23:32;-1.90;99.90
12682;DHT22;6405;59.208;18.216;2023-04-29T02:25:58;-1.90;99.90
12682;DHT22;6405;59.208;18.216;2023-04-29T02:28:24;-1.90;99.90
12682;DHT22;6405;59.208;18.216;2023-04-29T02:30:49;-1.90;99.90
12682;DHT22;6405;59.208;18.216;2023-04-29T02:33:16;-1.90;99.90
12682;DHT22;6405;59.208;18.216;2023-04-29T02:35:43;-1.90;99.90
12682;DHT22;6405;59.208;18.216;2023-04-29T02:38:08;-1.90;99.90
12682;DHT22;6405;59.208;18.216;2023-04-29T02:40:39;-1.90;99.90
12682;DHT22;6405;59.208;18.216;2023-04-29T02:43:05;-1.90;99.90
12682;DHT22;6405;59.208;18.216;2023-04-29T02:45:30;-1.90;99.90
12682;DHT22;6405;59.208;18.216;2023-04-29T02:47:56;-1.90;99.90
12682;DHT22;6405;59.208;18.216;2023-04-29T02:50:21;-1.90;99.90
12682;DHT22;6405;59.208;18.216;2023-04-29T02:52:49;-1.90;99.90
12682;DHT22;6405;59.208;18.216;2023-04-29T02:55:15;-1.90;99.90
12682;DHT22;6405;59.208;18.216;2023-04-29T02:57:41;-1.90;99.90
12682;DHT22;6405;59.208;18.216;2023-04-29T03:00:08;-1.90;99.90
12682;DHT22;6405;59.208;18.216;2023-04-29T03:02:34;-1.90;99.90
12682;DHT22;6405;59.208;18.216;2023-04-29T03:05:00;-1.90;99.90
12682;DHT22;6405;59.208;18.216;2023-04-29T03:07:25;-1.90;99.90
12682;DHT22;6405;59.208;18.216;2023-04-29T03:09:52;-1.90;99.90
12682;DHT22;6405;59.208;18.216;2023-04-29T03:12:17;-1.90;99.90
12682;DHT22;6405;59.208;18.216;2023-04-29T03:14:43;-1.90;99.90
12682;DHT22;6405;59.208;18.216;2023-04-29T03:17:09;-1.90;99.90
12682;DHT22;6405;59.208;18.216;2023-04-29T03:19:35;-1.80;99.90
12682;DHT22;6405;59.208;18.216;2023-04-29T03:22:00;-1.80;99.90
12682;DHT22;6405;59.208;18.216;2023-04-29T03:24:26;-1.70;99.90
12682;DHT22;6405;59.208;18.216;2023-04-29T03:26:51;-1.70;99.90
12682;DHT22;6405;59.208;18.216;2023-04-29T03:29:17;-1.60;99.90
12682;DHT22;6405;59.208;18.216;2023-04-29T03:31:43;-1.60;99.90
12682;DHT22;6405;59.208;18.216;2023-04-29T03:34:09;-1.50;99.90
12682;DHT22;6405;59.208;18.216;2023-04-29T03:36:34;-1.50;99.90
12682;DHT22;6405;59.208;18.216;2023-04-29T03:39:00;-1.40;99.90
12682;DHT22;6405;59.208;18.216;2023-04-29T03:41:26;-1.40;99.90
12682;DHT22;6405;59.208;18.216;2023-04-29T03:43:51;-1.40;99.90
12682;DHT22;6405;59.208;18.216;2023-04-29T03:46:19;-1.30;99.90
12682;DHT22;6405;59.208;18.216;2023-04-29T03:48:44;-1.30;99.90
12682;DHT22;6405;59.208;18.216;2023-04-29T03:51:10;-1.30;99.90
12682;DHT22;6405;59.208;18.216;2023-04-29T03:53:37;-1.30;99.90
12682;DHT22;6405;59.208;18.216;2023-04-29T03:56:04;-1.20;99.90
12682;DHT22;6405;59.208;18.216;2023-04-29T03:58:30;-1.20;99.90
12682;DHT22;6405;59.208;18.216;2023-04-29T04:00:55;-1.10;99.90
12682;DHT22;6405;59.208;18.216;2023-04-29T04:03:21;-1.10;99.90
12682;DHT22;6405;59.208;18.216;2023-04-29T04:05:48;-1.00;99.90
12682;DHT22;6405;59.208;18.216;2023-04-29T04:08:13;-1.00;99.90
12682;DHT22;6405;59.208;18.216;2023-04-29T04:10:39;-0.90;99.90
12682;DHT22;6405;59.208;18.216;2023-04-29T04:13:04;-0.80;99.90
12682;DHT22;6405;59.208;18.216;2023-04-29T04:15:30;-0.70;99.90
12682;DHT22;6405;59.208;18.216;2023-04-29T04:17:56;-0.60;99.90
12682;DHT22;6405;59.208;18.216;2023-04-29T04:20:21;-0.50;99.90
12682;DHT22;6405;59.208;18.216;2023-04-29T04:22:47;-0.40;99.90
12682;DHT22;6405;59.208;18.216;2023-04-29T04:25:12;-0.20;99.90
12682;DHT22;6405;59.208;18.216;2023-04-29T04:27:38;-0.10;99.90
12682;DHT22;6405;59.208;18.216;2023-04-29T04:30:04;0.10;99.90
12682;DHT22;6405;59.208;18.216;2023-04-29T04:32:30;0.30;99.90
12682;DHT22;6405;59.208;18.216;2023-04-29T04:34:56;0.40;99.90
12682;DHT22;6405;59.208;18.216;2023-04-29T04:37:21;0.60;99.90
12682;DHT22;6405;59.208;18.216;2023-04-29T04:39:47;0.70;99.90
12682;DHT22;6405;59.208;18.216;2023-04-29T04:42:13;0.80;99.90
12682;DHT22;6405;59.208;18.216;2023-04-29T04:44:38;0.90;99.90
12682;DHT22;6405;59.208;18.216;2023-04-29T04:47:04;1.00;99.90
12682;DHT22;6405;59.208;18.216;2023-04-29T04:49:31;1.10;99.90
12682;DHT22;6405;59.208;18.216;2023-04-29T04:51:56;1.10;99.90
12682;DHT22;6405;59.208;18.216;2023-04-29T04:54:22;1.20;99.90
12682;DHT22;6405;59.208;18.216;2023-04-29T04:56:47;1.30;99.90
12682;DHT22;6405;59.208;18.216;2023-04-29T04:59:13;1.40;99.90
12682;DHT22;6405;59.208;18.216;2023-04-29T05:01:39;1.60;99.90
12682;DHT22;6405;59.208;18.216;2023-04-29T05:04:04;1.70;99.90
12682;DHT22;6405;59.208;18.216;2023-04-29T05:06:30;1.90;99.90
12682;DHT22;6405;59.208;18.216;2023-04-29T05:08:56;2.00;99.90
12682;DHT22;6405;59.208;18.216;2023-04-29T05:11:21;2.10;99.90
12682;DHT22;6405;59.208;18.216;2023-04-29T05:13:47;2.20;99.90
12682;DHT22;6405;59.208;18.216;2023-04-29T05:16:13;2.30;99.90
12682;DHT22;6405;59.208;18.216;2023-04-29T05:18:39;2.50;99.90
12682;DHT22;6405;59.208;18.216;2023-04-29T05:21:05;2.60;99.90
12682;DHT22;6405;59.208;18.216;2023-04-29T05:23:30;2.70;99.90
12682;DHT22;6405;59.208;18.216;2023-04-29T05:25:56;2.80;99.90
12682;DHT22;6405;59.208;18.216;2023-04-29T05:28:22;2.90;99.90
12682;DHT22;6405;59.208;18.216;2023-04-29T05:30:50;3.00;99.90
12682;DHT22;6405;59.208;18.216;2023-04-29T05:33:16;3.20;99.90
12682;DHT22;6405;59.208;18.216;2023-04-29T05:35:42;3.40;99.90
12682;DHT22;6405;59.208;18.216;2023-04-29T05:38:07;3.60;99.90
12682;DHT22;6405;59.208;18.216;2023-04-29T05:40:33;3.80;99.90
12682;DHT22;6405;59.208;18.216;2023-04-29T05:42:59;3.90;99.90
12682;DHT22;6405;59.208;18.216;2023-04-29T05:45:24;4.10;99.90
12682;DHT22;6405;59.208;18.216;2023-04-29T05:47:50;4.30;99.90
12682;DHT22;6405;59.208;18.216;2023-04-29T05:50:16;4.50;99.90
12682;DHT22;6405;59.208;18.216;2023-04-29T05:52:41;4.60;99.90
12682;DHT22;6405;59.208;18.216;2023-04-29T05:55:07;4.80;99.90
12682;DHT22;6405;59.208;18.216;2023-04-29T05:57:33;5.00;99.90
12682;DHT22;6405;59.208;18.216;2023-04-29T05:59:59;5.10;99.90
12682;DHT22;6405;59.208;18.216;2023-04-29T06:02:26;5.20;99.90
12682;DHT22;6405;59.208;18.216;2023-04-29T06:04:51;5.30;99.90
12682;DHT22;6405;59.208;18.216;2023-04-29T06:07:17;5.40;99.90
12682;DHT22;6405;59.208;18.216;2023-04-29T06:09:43;5.50;99.90
12682;DHT22;6405;59.208;18.216;2023-04-29T06:12:09;5.60;99.90
12682;DHT22;6405;59.208;18.216;2023-04-29T06:14:35;5.70;99.90
12682;DHT22;6405;59.208;18.216;2023-04-29T06:17:01;5.70;99.90
12682;DHT22;6405;59.208;18.216;2023-04-29T06:19:27;5.80;99.90
12682;DHT22;6405;59.208;18.216;2023-04-29T06:21:52;5.90;99.90
12682;DHT22;6405;59.208;18.216;2023-04-29T06:24:18;6.00;99.90
12682;DHT22;6405;59.208;18.216;2023-04-29T06:26:43;6.10;99.90
12682;DHT22;6405;59.208;18.216;2023-04-29T06:29:10;6.30;99.90
12682;DHT22;6405;59.208;18.216;2023-04-29T06:31:35;6.30;99.90
12682;DHT22;6405;59.208;18.216;2023-04-29T06:34:01;6.40;99.90
12682;DHT22;6405;59.208;18.216;2023-04-29T06:36:27;6.50;99.90
12682;DHT22;6405;59.208;18.216;2023-04-29T06:38:52;6.60;99.90
12682;DHT22;6405;59.208;18.216;2023-04-29T06:41:18;6.70;99.90
12682;DHT22;6405;59.208;18.216;2023-04-29T06:43:44;6.80;99.90
12682;DHT22;6405;59.208;18.216;2023-04-29T06:46:09;6.80;99.90
12682;DHT22;6405;59.208;18.216;2023-04-29T06:48:35;6.90;99.90
12682;DHT22;6405;59.208;18.216;2023-04-29T06:51:01;7.10;99.90
12682;DHT22;6405;59.208;18.216;2023-04-29T06:53:27;7.20;99.90
12682;DHT22;6405;59.208;18.216;2023-04-29T06:55:53;7.30;99.90
12682;DHT22;6405;59.208;18.216;2023-04-29T06:58:18;7.30;99.90
12682;DHT22;6405;59.208;18.216;2023-04-29T07:00:46;7.30;99.90
12682;DHT22;6405;59.208;18.216;2023-04-29T07:03:12;7.40;99.90
12682;DHT22;6405;59.208;18.216;2023-04-29T07:05:38;7.40;99.90
12682;DHT22;6405;59.208;18.216;2023-04-29T07:08:06;7.50;99.90
12682;DHT22;6405;59.208;18.216;2023-04-29T07:10:33;7.50;99.90
12682;DHT22;6405;59.208;18.216;2023-04-29T07:12:58;7.50;99.90
12682;DHT22;6405;59.208;18.216;2023-04-29T07:15:25;7.50;99.90
12682;DHT22;6405;59.208;18.216;2023-04-29T07:17:51;7.70;99.90
12682;DHT22;6405;59.208;18.216;2023-04-29T07:20:17;7.90;99.90
12682;DHT22;6405;59.208;18.216;2023-04-29T07:22:43;8.00;99.90
12682;DHT22;6405;59.208;18.216;2023-04-29T07:25:09;8.10;99.90
12682;DHT22;6405;59.208;18.216;2023-04-29T07:27:35;8.30;99.90
12682;DHT22;6405;59.208;18.216;2023-04-29T07:30:01;8.40;99.90
12682;DHT22;6405;59.208;18.216;2023-04-29T07:32:27;8.50;99.90
12682;DHT22;6405;59.208;18.216;2023-04-29T07:34:53;8.60;99.90
12682;DHT22;6405;59.208;18.216;2023-04-29T07:37:19;8.70;99.90
12682;DHT22;6405;59.208;18.216;2023-04-29T07:39:44;8.80;99.90
12682;DHT22;6405;59.208;18.216;2023-04-29T07:42:10;8.80;99.90
12682;DHT22;6405;59.208;18.216;2023-04-29T07:44:36;8.90;99.90
12682;DHT22;6405;59.208;18.216;2023-04-29T07:47:02;9.00;99.90
12682;DHT22;6405;59.208;18.216;2023-04-29T07:49:27;9.20;99.90
12682;DHT22;6405;59.208;18.216;2023-04-29T07:51:53;9.40;99.90
12682;DHT22;6405;59.208;18.216;2023-04-29T07:54:19;9.60;99.90
12682;DHT22;6405;59.208;18.216;2023-04-29T07:56:45;9.50;99.90
12682;DHT22;6405;59.208;18.216;2023-04-29T07:59:11;9.60;99.90
12682;DHT22;6405;59.208;18.216;2023-04-29T08:01:36;9.80;99.90
12682;DHT22;6405;59.208;18.216;2023-04-29T08:04:02;10.00;99.90
12682;DHT22;6405;59.208;18.216;2023-04-29T08:06:28;10.20;99.90
12682;DHT22;6405;59.208;18.216;2023-04-29T08:08:55;10.10;99.90
12682;DHT22;6405;59.208;18.216;2023-04-29T08:11:21;10.00;99.90
12682;DHT22;6405;59.208;18.216;2023-04-29T08:13:49;9.90;99.90
12682;DHT22;6405;59.208;18.216;2023-04-29T08:16:15;10.10;99.90
12682;DHT22;6405;59.208;18.216;2023-04-29T08:18:40;10.20;99.90
12682;DHT22;6405;59.208;18.216;2023-04-29T08:21:06;10.20;99.90
12682;DHT22;6405;59.208;18.216;2023-04-29T08:23:33;10.10;99.90
12682;DHT22;6405;59.208;18.216;2023-04-29T08:26:00;10.00;99.90
12682;DHT22;6405;59.208;18.216;2023-04-29T08:28:25;9.80;99.90
12682;DHT22;6405;59.208;18.216;2023-04-29T08:30:52;9.90;99.90
12682;DHT22;6405;59.208;18.216;2023-04-29T08:33:17;10.00;99.90
12682;DHT22;6405;59.208;18.216;2023-04-29T08:35:43;10.10;99.90
12682;DHT22;6405;59.208;18.216;2023-04-29T08:38:09;10.10;99.90
12682;DHT22;6405;59.208;18.216;2023-04-29T08:40:41;10.20;99.90
12682;DHT22;6405;59.208;18.216;2023-04-29T08:43:08;10.30;99.90
12682;DHT22;6405;59.208;18.216;2023-04-29T08:45:35;10.30;99.90
12682;DHT22;6405;59.208;18.216;2023-04-29T08:48:08;10.30;99.90
12682;DHT22;6405;59.208;18.216;2023-04-29T08:50:39;10.30;99.90
12682;DHT22;6405;59.208;18.216;2023-04-29T08:53:09;10.50;99.90
12682;DHT22;6405;59.208;18.216;2023-04-29T08:55:43;10.60;99.90
12682;DHT22;6405;59.208;18.216;2023-04-29T08:58:10;10.60;99.90
12682;DHT22;6405;59.208;18.216;2023-04-29T09:00:37;10.40;99.90
12682;DHT22;6405;59.208;18.216;2023-04-29T09:03:11;10.20;99.90
12682;DHT22;6405;59.208;18.216;2023-04-29T09:05:40;10.30;99.90
12682;DHT22;6405;59.208;18.216;2023-04-29T09:08:07;10.00;99.90
12682;DHT22;6405;59.208;18.216;2023-04-29T09:10:35;10.10;99.90
12682;DHT22;6405;59.208;18.216;2023-04-29T09:13:01;10.00;99.90
12682;DHT22;6405;59.208;18.216;2023-04-29T09:15:27;10.30;99.90
12682;DHT22;6405;59.208;18.216;2023-04-29T09:17:53;10.50;99.90
12682;DHT22;6405;59.208;18.216;2023-04-29T09:22:49;11.00;99.90
12682;DHT22;6405;59.208;18.216;2023-04-29T09:25:14;11.10;99.90
12682;DHT22;6405;59.208;18.216;2023-04-29T09:27:40;11.30;99.90
12682;DHT22;6405;59.208;18.216;2023-04-29T09:30:07;11.50;99.90
12682;DHT22;6405;59.208;18.216;2023-04-29T09:32:33;11.50;99.90
12682;DHT22;6405;59.208;18.216;2023-04-29T09:37:48;11.90;99.90
12682;DHT22;6405;59.208;18.216;2023-04-29T09:40:31;11.80;99.90
12682;DHT22;6405;59.208;18.216;2023-04-29T09:42:58;12.00;99.90
12682;DHT22;6405;59.208;18.216;2023-04-29T09:45:37;11.80;99.90
12682;DHT22;6405;59.208;18.216;2023-04-29T09:48:04;11.70;99.90
12682;DHT22;6405;59.208;18.216;2023-04-29T09:50:34;11.50;99.90
12682;DHT22;6405;59.208;18.216;2023-04-29T09:53:03;11.40;99.90
12682;DHT22;6405;59.208;18.216;2023-04-29T09:55:30;11.30;99.90
12682;DHT22;6405;59.208;18.216;2023-04-29T09:57:56;11.20;99.90
12682;DHT22;6405;59.208;18.216;2023-04-29T10:00:23;11.20;99.90
12682;DHT22;6405;59.208;18.216;2023-04-29T10:02:50;11.00;99.90
12682;DHT22;6405;59.208;18.216;2023-04-29T10:05:18;10.90;99.90
12682;DHT22;6405;59.208;18.216;2023-04-29T10:07:45;10.90;99.90
12682;DHT22;6405;59.208;18.216;2023-04-29T10:10:12;10.90;99.90
12682;DHT22;6405;59.208;18.216;2023-04-29T10:12:39;11.00;99.90
12682;DHT22;6405;59.208;18.216;2023-04-29T10:15:32;10.90;99.90
12682;DHT22;6405;59.208;18.216;2023-04-29T10:18:12;10.80;99.90
12682;DHT22;6405;59.208;18.216;2023-04-29T10:20:40;10.60;99.90
12682;DHT22;6405;59.208;18.216;2023-04-29T10:23:07;10.90;99.90
12682;DHT22;6405;59.208;18.216;2023-04-29T10:25:36;11.00;99.90
12682;DHT22;6405;59.208;18.216;2023-04-29T10:28:02;10.90;99.90
12682;DHT22;6405;59.208;18.216;2023-04-29T10:30:29;11.10;99.90
12682;DHT22;6405;59.208;18.216;2023-04-29T10:32:59;11.00;99.90
12682;DHT22;6405;59.208;18.216;2023-04-29T10:35:26;11.10;99.90
12682;DHT22;6405;59.208;18.216;2023-04-29T10:37:53;10.90;99.90
12682;DHT22;6405;59.208;18.216;2023-04-29T10:40:41;10.70;99.90
12682;DHT22;6405;59.208;18.216;2023-04-29T10:43:08;10.40;99.90
12682;DHT22;6405;59.208;18.216;2023-04-29T10:45:34;10.60;99.90
12682;DHT22;6405;59.208;18.216;2023-04-29T10:53:02;10.40;99.90
12682;DHT22;6405;59.208;18.216;2023-04-29T10:55:29;10.40;99.90
12682;DHT22;6405;59.208;18.216;2023-04-29T10:57:55;10.40;99.90
12682;DHT22;6405;59.208;18.216;2023-04-29T11:00:29;10.40;99.90
12682;DHT22;6405;59.208;18.216;2023-04-29T11:02:56;10.30;99.90
12682;DHT22;6405;59.208;18.216;2023-04-29T11:05:33;10.30;99.90
12682;DHT22;6405;59.208;18.216;2023-04-29T11:10:40;10.40;99.90
12682;DHT22;6405;59.208;18.216;2023-04-29T11:13:29;10.20;99.90
12682;DHT22;6405;59.208;18.216;2023-04-29T11:16:09;10.10;99.90
12682;DHT22;6405;59.208;18.216;2023-04-29T11:18:36;10.20;99.90
12682;DHT22;6405;59.208;18.216;2023-04-29T11:21:21;10.10;99.90
12682;DHT22;6405;59.208;18.216;2023-04-29T11:23:50;9.90;99.90
12682;DHT22;6405;59.208;18.216;2023-04-29T11:26:18;9.60;99.90
12682;DHT22;6405;59.208;18.216;2023-04-29T11:28:44;9.50;99.90
12682;DHT22;6405;59.208;18.216;2023-04-29T11:31:11;9.50;99.90
12682;DHT22;6405;59.208;18.216;2023-04-29T11:33:37;9.50;99.90
12682;DHT22;6405;59.208;18.216;2023-04-29T11:36:03;9.80;99.90
12682;DHT22;6405;59.208;18.216;2023-04-29T11:38:29;9.70;99.90
12682;DHT22;6405;59.208;18.216;2023-04-29T11:40:56;9.90;99.90
12682;DHT22;6405;59.208;18.216;2023-04-29T11:43:23;9.90;99.90
12682;DHT22;6405;59.208;18.216;2023-04-29T11:45:49;10.00;99.90
12682;DHT22;6405;59.208;18.216;2023-04-29T11:48:22;9.70;99.90
12682;DHT22;6405;59.208;18.216;2023-04-29T11:50:58;9.40;99.90
12682;DHT22;6405;59.208;18.216;2023-04-29T11:53:25;9.30;99.90
12682;DHT22;6405;59.208;18.216;2023-04-29T11:55:52;9.40;99.90
12682;DHT22;6405;59.208;18.216;2023-04-29T11:58:22;9.40;99.90
12682;DHT22;6405;59.208;18.216;2023-04-29T12:00:49;9.40;99.90
12682;DHT22;6405;59.208;18.216;2023-04-29T12:03:19;9.20;99.90
12682;DHT22;6405;59.208;18.216;2023-04-29T12:05:54;8.80;99.90
12682;DHT22;6405;59.208;18.216;2023-04-29T12:08:24;8.80;99.90
12682;DHT22;6405;59.208;18.216;2023-04-29T12:10:51;8.70;99.90
12682;DHT22;6405;59.208;18.216;2023-04-29T12:13:18;8.40;99.90
12682;DHT22;6405;59.208;18.216;2023-04-29T12:15:45;8.40;99.90
12682;DHT22;6405;59.208;18.216;2023-04-29T12:18:11;8.40;99.90
12682;DHT22;6405;59.208;18.216;2023-04-29T12:20:37;8.40;99.90
12682;DHT22;6405;59.208;18.216;2023-04-29T12:23:16;8.60;99.90
12682;DHT22;6405;59.208;18.216;2023-04-29T12:25:56;8.50;99.90
12682;DHT22;6405;59.208;18.216;2023-04-29T12:28:23;8.30;99.90
12682;DHT22;6405;59.208;18.216;2023-04-29T12:30:52;8.20;99.90
12682;DHT22;6405;59.208;18.216;2023-04-29T12:33:23;8.10;99.90
12682;DHT22;6405;59.208;18.216;2023-04-29T12:35:50;8.00;99.90
12682;DHT22;6405;59.208;18.216;2023-04-29T12:38:26;8.00;99.90
12682;DHT22;6405;59.208;18.216;2023-04-29T12:40:53;8.00;99.90
12682;DHT22;6405;59.208;18.216;2023-04-29T12:43:28;8.00;99.90
12682;DHT22;6405;59.208;18.216;2023-04-29T12:46:03;8.00;99.90
12682;DHT22;6405;59.208;18.216;2023-04-29T12:48:32;8.10;99.90
12682;DHT22;6405;59.208;18.216;2023-04-29T12:51:00;8.10;99.90
12682;DHT22;6405;59.208;18.216;2023-04-29T12:53:27;8.10;99.90
12682;DHT22;6405;59.208;18.216;2023-04-29T12:55:53;8.20;99.90
12682;DHT22;6405;59.208;18.216;2023-04-29T12:58:19;8.30;99.90
12682;DHT22;6405;59.208;18.216;2023-04-29T13:00:45;8.70;99.90
12682;DHT22;6405;59.208;18.216;2023-04-29T13:03:11;8.60;99.90
12682;DHT22;6405;59.208;18.216;2023-04-29T13:05:37;8.70;99.90
12682;DHT22;6405;59.208;18.216;2023-04-29T13:08:03;8.80;99.90
12682;DHT22;6405;59.208;18.216;2023-04-29T13:10:33;8.70;99.90
12682;DHT22;6405;59.208;18.216;2023-04-29T13:12:58;8.70;99.90
12682;DHT22;6405;59.208;18.216;2023-04-29T13:15:25;8.70;99.90
12682;DHT22;6405;59.208;18.216;2023-04-29T13:17:51;8.70;99.90
12682;DHT22;6405;59.208;18.216;2023-04-29T13:20:17;8.70;99.90
12682;DHT22;6405;59.208;18.216;2023-04-29T13:22:42;8.70;99.90
12682;DHT22;6405;59.208;18.216;2023-04-29T13:25:12;8.80;99.90
12682;DHT22;6405;59.208;18.216;2023-04-29T13:27:39;8.60;99.90
12682;DHT22;6405;59.208;18.216;2023-04-29T13:30:05;8.80;99.90
12682;DHT22;6405;59.208;18.216;2023-04-29T13:32:32;8.80;99.90
12682;DHT22;6405;59.208;18.216;2023-04-29T13:34:58;8.90;99.90
12682;DHT22;6405;59.208;18.216;2023-04-29T13:37:23;9.10;99.90
12682;DHT22;6405;59.208;18.216;2023-04-29T13:39:49;9.30;99.90
12682;DHT22;6405;59.208;18.216;2023-04-29T13:42:15;9.50;99.90
12682;DHT22;6405;59.208;18.216;2023-04-29T13:44:40;9.70;99.90
12682;DHT22;6405;59.208;18.216;2023-04-29T13:47:10;9.60;99.90
12682;DHT22;6405;59.208;18.216;2023-04-29T13:49:37;9.60;99.90
12682;DHT22;6405;59.208;18.216;2023-04-29T13:52:03;9.60;99.90
12682;DHT22;6405;59.208;18.216;2023-04-29T13:54:28;9.60;99.90
12682;DHT22;6405;59.208;18.216;2023-04-29T13:56:54;9.60;99.90
12682;DHT22;6405;59.208;18.216;2023-04-29T13:59:19;9.60;99.90
12682;DHT22;6405;59.208;18.216;2023-04-29T14:01:45;9.80;99.90
12682;DHT22;6405;59.208;18.216;2023-04-29T14:04:11;9.60;99.90
12682;DHT22;6405;59.208;18.216;2023-04-29T14:06:37;9.70;99.90
12682;DHT22;6405;59.208;18.216;2023-04-29T14:09:02;9.50;99.90
12682;DHT22;6405;59.208;18.216;2023-04-29T14:11:28;9.40;99.90
12682;DHT22;6405;59.208;18.216;2023-04-29T14:13:54;9.50;99.90
12682;DHT22;6405;59.208;18.216;2023-04-29T14:16:20;9.50;99.90
12682;DHT22;6405;59.208;18.216;2023-04-29T14:18:46;9.50;99.90
12682;DHT22;6405;59.208;18.216;2023-04-29T14:21:11;9.50;99.90
12682;DHT22;6405;59.208;18.216;2023-04-29T14:23:38;9.70;99.90
12682;DHT22;6405;59.208;18.216;2023-04-29T14:26:04;9.80;99.90
12682;DHT22;6405;59.208;18.216;2023-04-29T14:28:29;10.00;99.90
12682;DHT22;6405;59.208;18.216;2023-04-29T14:30:55;9.80;99.90
12682;DHT22;6405;59.208;18.216;2023-04-29T14:33:21;9.70;99.90
12682;DHT22;6405;59.208;18.216;2023-04-29T14:35:47;9.60;99.90
12682;DHT22;6405;59.208;18.216;2023-04-29T14:38:13;9.40;99.90
12682;DHT22;6405;59.208;18.216;2023-04-29T14:40:38;9.30;99.90
12682;DHT22;6405;59.208;18.216;2023-04-29T14:43:04;9.20;99.90
12682;DHT22;6405;59.208;18.216;2023-04-29T14:45:31;9.20;99.90
12682;DHT22;6405;59.208;18.216;2023-04-29T14:47:56;9.20;99.90
12682;DHT22;6405;59.208;18.216;2023-04-29T14:50:22;9.20;99.90
12682;DHT22;6405;59.208;18.216;2023-04-29T14:52:49;9.20;99.90
12682;DHT22;6405;59.208;18.216;2023-04-29T14:55:15;9.20;99.90
12682;DHT22;6405;59.208;18.216;2023-04-29T14:57:41;9.30;99.90
12682;DHT22;6405;59.208;18.216;2023-04-29T15:00:07;9.20;99.90
12682;DHT22;6405;59.208;18.216;2023-04-29T15:02:33;9.10;99.90
12682;DHT22;6405;59.208;18.216;2023-04-29T15:04:58;9.00;99.90
12682;DHT22;6405;59.208;18.216;2023-04-29T15:07:24;9.00;99.90
12682;DHT22;6405;59.208;18.216;2023-04-29T15:09:50;9.10;99.90
12682;DHT22;6405;59.208;18.216;2023-04-29T15:12:16;9.00;99.90
12682;DHT22;6405;59.208;18.216;2023-04-29T15:14:44;8.80;99.90
12682;DHT22;6405;59.208;18.216;2023-04-29T15:17:09;8.70;99.90
12682;DHT22;6405;59.208;18.216;2023-04-29T15:19:35;8.90;99.90
12682;DHT22;6405;59.208;18.216;2023-04-29T15:22:01;8.90;99.90
12682;DHT22;6405;59.208;18.216;2023-04-29T15:24:26;9.00;99.90
12682;DHT22;6405;59.208;18.216;2023-04-29T15:26:52;9.00;99.90
12682;DHT22;6405;59.208;18.216;2023-04-29T15:29:18;9.00;99.90
12682;DHT22;6405;59.208;18.216;2023-04-29T15:31:43;8.70;99.90
12682;DHT22;6405;59.208;18.216;2023-04-29T15:34:09;8.40;99.90
12682;DHT22;6405;59.208;18.216;2023-04-29T15:36:34;8.30;99.90
12682;DHT22;6405;59.208;18.216;2023-04-29T15:39:00;8.10;99.90
12682;DHT22;6405;59.208;18.216;2023-04-29T15:41:26;7.90;99.90
12682;DHT22;6405;59.208;18.216;2023-04-29T15:43:52;7.90;99.90
12682;DHT22;6405;59.208;18.216;2023-04-29T15:46:19;7.90;99.90
12682;DHT22;6405;59.208;18.216;2023-04-29T15:48:45;7.80;99.90
12682;DHT22;6405;59.208;18.216;2023-04-29T15:51:10;7.90;99.90
12682;DHT22;6405;59.208;18.216;2023-04-29T15:53:40;7.90;99.90
12682;DHT22;6405;59.208;18.216;2023-04-29T15:56:05;7.80;99.90
12682;DHT22;6405;59.208;18.216;2023-04-29T15:58:31;7.70;99.90
12682;DHT22;6405;59.208;18.216;2023-04-29T16:00:57;7.60;99.90
12682;DHT22;6405;59.208;18.216;2023-04-29T16:03:23;7.50;99.90